Veendam — PHEO — position and weather

sailwx.info

Track history (hours):
 
Tides and Currents Weather Stations Pressure Air Temp Water Temp Dewpoint Dewpoint Depression Visibility Wind Speed Wind Dir Waves Ship Positions

Veendam (Netherlands)

Last reported at 2019-May-19 19:00 UTC. Time now 2019-May-20 17:04 UTC.
Position N 37°12' E 026°00'.

Type: Ship. MMSI: 246506000.

Wind from 140 at 23 knots

Barometer 1011.0 mb
Air temperature 21.0 ° C
Visibility: greater than 10.8 NM
Water temperature 19.0 ° C

Date/timePositionNaut miles runAvg speedWind from/ knotsBaromVisibWave heightAir tempDewpointWater temp
2019-May-19 19:00N 37°12' E 026°00'34 1.6 140 / 231011.010.8 21.0 19.0
2019-May-18 21:03N 37°45' E 025°48'113.8
2019-May-18 21:00N 37°44' E 025°48'713.3
2019-May-18 20:30N 37°39' E 025°43'813.6
2019-May-18 19:54N 37°31' E 025°44'513.5
2019-May-18 19:30N 37°26' E 025°44'613.2
2019-May-18 19:00N 37°19' E 025°43'713.4
2019-May-18 18:30N 37°13' E 025°43'713.0
2019-May-18 18:00N 37°06' E 025°42'270 9.6 050 / 21011.010.8 21.0 19.0
2019-May-17 14:00N 36°42' E 020°06'3115.6 360 / 161010.010.8 18.0 18.0
2019-May-17 12:00N 36°54' E 019°30'14520.7 340 / 51010.010.8 19.0 18.0
2019-May-17 05:00N 37°36' E 016°36'2717.0 030 / 151007.010.8 16.016.020.0
2019-May-17 03:26N 37°47' E 016°05'819.2
2019-May-17 03:00N 37°49' E 015°56'1019.1
2019-May-17 02:30N 37°52' E 015°44'918.5
2019-May-17 02:00N 37°56' E 015°33'919.0
2019-May-17 01:30N 38°05' E 015°34'918.2
2019-May-17 01:00N 38°14' E 015°36'713.1
2019-May-17 00:30N 38°20' E 015°40'816.9
2019-May-17 00:00N 38°29' E 015°39'918.1
2019-May-16 23:30N 38°38' E 015°38'1019.6
2019-May-16 23:00N 38°47' E 015°37'5919.6
2019-May-16 20:00N 39°36' E 014°54'4321.4 050 / 81009.010.8 18.0 18.0
2019-May-16 18:00N 40°12' E 014°24'39 4.9 050 / 91009.010.8 21.0 18.0
2019-May-16 10:03N 40°51' E 014°16'0 0.0
2019-May-16 10:00N 40°51' E 014°16'0 0.0
2019-May-16 09:30N 40°51' E 014°16'0 0.0
2019-May-16 09:00N 40°51' E 014°16'0 0.0
2019-May-16 08:30N 40°51' E 014°16'0 0.0
2019-May-16 08:00N 40°51' E 014°16'0 0.0
2019-May-16 07:30N 40°51' E 014°16'0 0.0
2019-May-16 07:00N 40°51' E 014°16'0 0.0
2019-May-16 06:30N 40°51' E 014°16'0 0.0
2019-May-16 06:00N 40°51' E 014°16'0 0.0
2019-May-16 05:27N 40°51' E 014°16'0 0.0
2019-May-16 05:00N 40°51' E 014°16'0 0.0
2019-May-16 04:27N 40°51' E 014°16'1 1.2
2019-May-16 04:00N 40°50' E 014°16'4 8.4
2019-May-16 03:31N 40°46' E 014°16'815.3
2019-May-16 03:01N 40°41' E 014°09'5298.9
2019-May-16 03:00N 40°36' E 014°06'510.8 080 / 251007.0 15.013.217.0
2019-May-16 02:30N 40°39' E 014°00'713.5
2019-May-16 02:00N 40°39' E 013°51'1415.8
2019-May-16 01:09N 40°47' E 013°37'9515.5
2019-May-15 19:00N 41°36' E 011°48'69 3.0 080 / 211009.0 5.4 11.0 18.0
2019-May-14 20:00N 41°00' E 013°06'1724.4 100 / 151012.010.8 16.014.318.0
2019-May-14 19:19N 40°53' E 013°26'517.6
2019-May-14 19:01N 40°51' E 013°32'917.3
2019-May-14 18:29N 40°45' E 013°41'817.3
2019-May-14 18:00N 40°39' E 013°49'917.5
2019-May-14 17:30N 40°38' E 014°01'917.1
2019-May-14 17:00N 40°43' E 014°10'816.0
2019-May-14 16:30N 40°49' E 014°17'1 2.1
2019-May-14 15:55N 40°50' E 014°15'0 0.0
2019-May-14 15:28N 40°50' E 014°15'0 0.0
2019-May-14 14:58N 40°50' E 014°15'0 0.0
2019-May-14 14:25N 40°50' E 014°15'0 0.0
2019-May-14 13:55N 40°50' E 014°15'0 0.0
2019-May-14 13:25N 40°50' E 014°15'0 0.0
2019-May-14 12:55N 40°50' E 014°15'0 0.0
2019-May-14 12:25N 40°50' E 014°15'0 0.0
2019-May-14 11:55N 40°50' E 014°15'0 0.0
2019-May-14 11:28N 40°50' E 014°15'0 0.0
2019-May-14 10:58N 40°50' E 014°15'0 0.0
2019-May-14 10:25N 40°50' E 014°15'0 0.0
2019-May-14 09:58N 40°50' E 014°15'0 0.0
2019-May-14 09:25N 40°50' E 014°15'0 0.0
2019-May-14 08:58N 40°50' E 014°15'0 0.0
2019-May-14 08:25N 40°50' E 014°15'0 0.0
2019-May-14 07:58N 40°50' E 014°15'0 0.0
2019-May-14 07:28N 40°50' E 014°15'0 0.0
2019-May-14 06:58N 40°50' E 014°15'0 0.0
2019-May-14 06:25N 40°50' E 014°15'0 0.0
2019-May-14 05:58N 40°50' E 014°15'0 0.0
2019-May-14 05:28N 40°50' E 014°15'0 0.0
2019-May-14 04:58N 40°50' E 014°15'0 0.0
2019-May-14 04:28N 40°50' E 014°15'0 1.1
2019-May-14 04:00N 40°50' E 014°16'2 4.4
2019-May-14 03:31N 40°48' E 014°17'918.0
2019-May-14 03:00N 40°40' E 014°12'1119.1
2019-May-14 02:26N 40°29' E 014°09'920.2
2019-May-14 02:01N 40°22' E 014°15'1020.3
2019-May-14 01:30N 40°13' E 014°21'1020.3
2019-May-14 01:00N 40°04' E 014°28'7319.4
2019-May-13 21:15N 38°60' E 015°13'519.6
2019-May-13 21:00N 38°55' E 015°16'8580.8
2019-May-13 21:00N 38°48' E 015°12'816.0 060 / 101008.010.8 17.0 18.0
2019-May-13 20:31N 38°47' E 015°22'918.9
2019-May-13 20:00N 38°39' E 015°28'918.9
2019-May-13 19:30N 38°31' E 015°35'1019.0
2019-May-13 19:00N 38°23' E 015°40'714.4
2019-May-13 18:30N 38°15' E 015°41'613.1
2019-May-13 18:00N 38°10' E 015°37'1017.6
2019-May-13 17:25N 37°60' E 015°33'919.2
2019-May-13 16:56N 37°51' E 015°29'26 2.0
2019-May-13 04:23N 37°27' E 015°18'616.5
2019-May-13 04:00N 37°26' E 015°26'1016.6
2019-May-13 03:25N 37°24' E 015°38'716.9
2019-May-13 03:01N 37°21' E 015°46'1017.5
2019-May-13 02:27N 37°19' E 015°58'1817.0
2019-May-13 01:24N 37°16' E 016°20'9216.9
2019-May-12 20:00N 36°54' E 018°12'2914.7 220 / 191011.0 2.2 17.0 18.0
2019-May-12 18:00N 36°48' E 018°48'7913.2 200 / 221011.0 5.4 18.0 18.0
2019-May-12 12:00N 36°30' E 020°24'2117235.2 210 / 171016.010.8 20.018.420.0
2019-May-12 03:00N 36°12' W 023°24'2323465.0 190 / 81013.0 5.4 17.017.017.0
2019-May-11 22:00N 37°10' E 024°52'917.5
2019-May-11 21:31N 37°13' E 025°02'917.6
2019-May-11 21:01N 37°16' E 025°12'917.6
2019-May-11 20:30N 37°20' E 025°22'917.5
2019-May-11 20:01N 37°25' E 025°31'2017.7
2019-May-11 18:51N 37°37' E 025°51'3217.4
2019-May-11 17:00N 37°48' E 026°30'24 1.6 300 / 151015.010.8 19.0 18.0
2019-May-11 02:00N 37°48' E 027°00'5811.0 180 / 141013.0 19.017.420.0
2019-May-10 20:47N 37°46' E 025°47'518.0
2019-May-10 20:30N 37°43' E 025°43'917.8
2019-May-10 20:00N 37°37' E 025°34'917.3
2019-May-10 19:30N 37°35' E 025°23'714.5
2019-May-10 19:00N 37°30' E 025°17'2 4.4
2019-May-10 18:28N 37°28' E 025°19'0 0.0
2019-May-10 17:58N 37°28' E 025°19'0 0.0
2019-May-10 17:28N 37°28' E 025°19'0 0.0
2019-May-10 16:58N 37°28' E 025°19'0 0.0
2019-May-10 16:22N 37°28' E 025°19'0 0.0
2019-May-10 15:55N 37°28' E 025°19'0 0.0
2019-May-10 15:28N 37°28' E 025°19'4 8.6
2019-May-10 15:00N 37°24' E 025°18'450.1 230 / 71010.010.8 21.019.418.0
2019-May-10 14:55N 37°28' E 025°19'0 0.0
2019-May-10 14:28N 37°28' E 025°19'0 0.0
2019-May-10 13:58N 37°28' E 025°19'0 0.0
2019-May-10 13:28N 37°28' E 025°19'0 0.0
2019-May-10 12:58N 37°28' E 025°19'0 0.0
2019-May-10 12:19N 37°28' E 025°19'0 0.0
2019-May-10 11:58N 37°28' E 025°19'0 0.0
2019-May-10 11:28N 37°28' E 025°19'0 0.0
2019-May-10 10:58N 37°28' E 025°19'0 0.0
2019-May-10 10:28N 37°28' E 025°19'0 0.0
2019-May-10 09:58N 37°28' E 025°19'0 0.0
2019-May-10 09:28N 37°28' E 025°19'0 0.0
2019-May-10 08:58N 37°28' E 025°19'0 0.0
2019-May-10 08:28N 37°28' E 025°19'0 0.0
2019-May-10 07:55N 37°28' E 025°19'0 0.0
2019-May-10 07:30N 37°28' E 025°19'1 1.1
2019-May-10 07:00N 37°28' E 025°19'611.6
2019-May-10 06:30N 37°28' E 025°11'715.0
2019-May-10 06:01N 37°22' E 025°05'815.2
2019-May-10 05:31N 37°17' E 024°58'815.4
2019-May-10 05:01N 37°13' E 024°50'261505.4
2019-May-10 05:00N 37°12' E 024°18'2412.2 240 / 161010.010.8 17.017.015.0
2019-May-10 03:00N 36°48' E 024°12'1111.3 250 / 161010.010.8 17.017.015.0
2019-May-10 02:00N 36°42' E 024°00'   250 / 201010.0 17.017.019.0
Track history (hours):
 
Tides and Currents Weather Stations Pressure Air Temp Water Temp Dewpoint Dewpoint Depression Visibility Wind Speed Wind Dir Waves Ship Positions

Veendam (Netherlands)

Last reported at 2019-May-19 19:00 UTC. Time now 2019-May-20 17:04 UTC.
Position N 37°12' E 026°00'.

Type: Ship. MMSI: 246506000.

Wind from 140 at 23 knots

Barometer 1011.0 mb
Air temperature 21.0 ° C
Visibility: greater than 10.8 NM
Water temperature 19.0 ° C

Date/timePositionNaut miles runAvg speedWind from/ knotsBaromVisibWave heightAir tempDewpointWater temp
2019-May-19 19:00N 37°12' E 026°00'34 1.6 140 / 231011.010.8 21.0 19.0
2019-May-18 21:03N 37°45' E 025°48'113.8
2019-May-18 21:00N 37°44' E 025°48'713.3
2019-May-18 20:30N 37°39' E 025°43'813.6
2019-May-18 19:54N 37°31' E 025°44'513.5
2019-May-18 19:30N 37°26' E 025°44'613.2
2019-May-18 19:00N 37°19' E 025°43'713.4
2019-May-18 18:30N 37°13' E 025°43'713.0
2019-May-18 18:00N 37°06' E 025°42'270 9.6 050 / 21011.010.8 21.0 19.0
2019-May-17 14:00N 36°42' E 020°06'3115.6 360 / 161010.010.8 18.0 18.0
2019-May-17 12:00N 36°54' E 019°30'14520.7 340 / 51010.010.8 19.0 18.0
2019-May-17 05:00N 37°36' E 016°36'2717.0 030 / 151007.010.8 16.016.020.0
2019-May-17 03:26N 37°47' E 016°05'819.2
2019-May-17 03:00N 37°49' E 015°56'1019.1
2019-May-17 02:30N 37°52' E 015°44'918.5
2019-May-17 02:00N 37°56' E 015°33'919.0
2019-May-17 01:30N 38°05' E 015°34'918.2
2019-May-17 01:00N 38°14' E 015°36'713.1
2019-May-17 00:30N 38°20' E 015°40'816.9
2019-May-17 00:00N 38°29' E 015°39'918.1
2019-May-16 23:30N 38°38' E 015°38'1019.6
2019-May-16 23:00N 38°47' E 015°37'5919.6
2019-May-16 20:00N 39°36' E 014°54'4321.4 050 / 81009.010.8 18.0 18.0
2019-May-16 18:00N 40°12' E 014°24'39 4.9 050 / 91009.010.8 21.0 18.0
2019-May-16 10:03N 40°51' E 014°16'0 0.0
2019-May-16 10:00N 40°51' E 014°16'0 0.0
2019-May-16 09:30N 40°51' E 014°16'0 0.0
2019-May-16 09:00N 40°51' E 014°16'0 0.0
2019-May-16 08:30N 40°51' E 014°16'0 0.0
2019-May-16 08:00N 40°51' E 014°16'0 0.0
2019-May-16 07:30N 40°51' E 014°16'0 0.0
2019-May-16 07:00N 40°51' E 014°16'0 0.0
2019-May-16 06:30N 40°51' E 014°16'0 0.0
2019-May-16 06:00N 40°51' E 014°16'0 0.0
2019-May-16 05:27N 40°51' E 014°16'0 0.0
2019-May-16 05:00N 40°51' E 014°16'0 0.0
2019-May-16 04:27N 40°51' E 014°16'1 1.2
2019-May-16 04:00N 40°50' E 014°16'4 8.4
2019-May-16 03:31N 40°46' E 014°16'815.3
2019-May-16 03:01N 40°41' E 014°09'5298.9
2019-May-16 03:00N 40°36' E 014°06'510.8 080 / 251007.0 15.013.217.0
2019-May-16 02:30N 40°39' E 014°00'713.5
2019-May-16 02:00N 40°39' E 013°51'1415.8
2019-May-16 01:09N 40°47' E 013°37'9515.5
2019-May-15 19:00N 41°36' E 011°48'69 3.0 080 / 211009.0 5.4 11.0 18.0
2019-May-14 20:00N 41°00' E 013°06'1724.4 100 / 151012.010.8 16.014.318.0
2019-May-14 19:19N 40°53' E 013°26'517.6
2019-May-14 19:01N 40°51' E 013°32'917.3
2019-May-14 18:29N 40°45' E 013°41'817.3
2019-May-14 18:00N 40°39' E 013°49'917.5
2019-May-14 17:30N 40°38' E 014°01'917.1
2019-May-14 17:00N 40°43' E 014°10'816.0
2019-May-14 16:30N 40°49' E 014°17'1 2.1
2019-May-14 15:55N 40°50' E 014°15'0 0.0
2019-May-14 15:28N 40°50' E 014°15'0 0.0
2019-May-14 14:58N 40°50' E 014°15'0 0.0
2019-May-14 14:25N 40°50' E 014°15'0 0.0
2019-May-14 13:55N 40°50' E 014°15'0 0.0
2019-May-14 13:25N 40°50' E 014°15'0 0.0
2019-May-14 12:55N 40°50' E 014°15'0 0.0
2019-May-14 12:25N 40°50' E 014°15'0 0.0
2019-May-14 11:55N 40°50' E 014°15'0 0.0
2019-May-14 11:28N 40°50' E 014°15'0 0.0
2019-May-14 10:58N 40°50' E 014°15'0 0.0
2019-May-14 10:25N 40°50' E 014°15'0 0.0
2019-May-14 09:58N 40°50' E 014°15'0 0.0
2019-May-14 09:25N 40°50' E 014°15'0 0.0
2019-May-14 08:58N 40°50' E 014°15'0 0.0
2019-May-14 08:25N 40°50' E 014°15'0 0.0
2019-May-14 07:58N 40°50' E 014°15'0 0.0
2019-May-14 07:28N 40°50' E 014°15'0 0.0
2019-May-14 06:58N 40°50' E 014°15'0 0.0
2019-May-14 06:25N 40°50' E 014°15'0 0.0
2019-May-14 05:58N 40°50' E 014°15'0 0.0
2019-May-14 05:28N 40°50' E 014°15'0 0.0
2019-May-14 04:58N 40°50' E 014°15'0 0.0
2019-May-14 04:28N 40°50' E 014°15'0 1.1
2019-May-14 04:00N 40°50' E 014°16'2 4.4
2019-May-14 03:31N 40°48' E 014°17'918.0
2019-May-14 03:00N 40°40' E 014°12'1119.1
2019-May-14 02:26N 40°29' E 014°09'920.2
2019-May-14 02:01N 40°22' E 014°15'1020.3
2019-May-14 01:30N 40°13' E 014°21'1020.3
2019-May-14 01:00N 40°04' E 014°28'7319.4
2019-May-13 21:15N 38°60' E 015°13'519.6
2019-May-13 21:00N 38°55' E 015°16'8580.8
2019-May-13 21:00N 38°48' E 015°12'816.0 060 / 101008.010.8 17.0 18.0
2019-May-13 20:31N 38°47' E 015°22'918.9
2019-May-13 20:00N 38°39' E 015°28'918.9
2019-May-13 19:30N 38°31' E 015°35'1019.0
2019-May-13 19:00N 38°23' E 015°40'714.4
2019-May-13 18:30N 38°15' E 015°41'613.1
2019-May-13 18:00N 38°10' E 015°37'1017.6
2019-May-13 17:25N 37°60' E 015°33'919.2
2019-May-13 16:56N 37°51' E 015°29'26 2.0
2019-May-13 04:23N 37°27' E 015°18'616.5
2019-May-13 04:00N 37°26' E 015°26'1016.6
2019-May-13 03:25N 37°24' E 015°38'716.9
2019-May-13 03:01N 37°21' E 015°46'1017.5
2019-May-13 02:27N 37°19' E 015°58'1817.0
2019-May-13 01:24N 37°16' E 016°20'9216.9
2019-May-12 20:00N 36°54' E 018°12'2914.7 220 / 191011.0 2.2 17.0 18.0
2019-May-12 18:00N 36°48' E 018°48'7913.2 200 / 221011.0 5.4 18.0 18.0
2019-May-12 12:00N 36°30' E 020°24'2117235.2 210 / 171016.010.8 20.018.420.0
2019-May-12 03:00N 36°12' W 023°24'2323465.0 190 / 81013.0 5.4 17.017.017.0
2019-May-11 22:00N 37°10' E 024°52'917.5
2019-May-11 21:31N 37°13' E 025°02'917.6
2019-May-11 21:01N 37°16' E 025°12'917.6
2019-May-11 20:30N 37°20' E 025°22'917.5
2019-May-11 20:01N 37°25' E 025°31'2017.7
2019-May-11 18:51N 37°37' E 025°51'3217.4
2019-May-11 17:00N 37°48' E 026°30'24 1.6 300 / 151015.010.8 19.0 18.0
2019-May-11 02:00N 37°48' E 027°00'5811.0 180 / 141013.0 19.017.420.0
2019-May-10 20:47N 37°46' E 025°47'518.0
2019-May-10 20:30N 37°43' E 025°43'917.8
2019-May-10 20:00N 37°37' E 025°34'917.3
2019-May-10 19:30N 37°35' E 025°23'714.5
2019-May-10 19:00N 37°30' E 025°17'2 4.4
2019-May-10 18:28N 37°28' E 025°19'0 0.0
2019-May-10 17:58N 37°28' E 025°19'0 0.0
2019-May-10 17:28N 37°28' E 025°19'0 0.0
2019-May-10 16:58N 37°28' E 025°19'0 0.0
2019-May-10 16:22N 37°28' E 025°19'0 0.0
2019-May-10 15:55N 37°28' E 025°19'0 0.0
2019-May-10 15:28N 37°28' E 025°19'4 8.6
2019-May-10 15:00N 37°24' E 025°18'450.1 230 / 71010.010.8 21.019.418.0
2019-May-10 14:55N 37°28' E 025°19'0 0.0
2019-May-10 14:28N 37°28' E 025°19'0 0.0
2019-May-10 13:58N 37°28' E 025°19'0 0.0
2019-May-10 13:28N 37°28' E 025°19'0 0.0
2019-May-10 12:58N 37°28' E 025°19'0 0.0
2019-May-10 12:19N 37°28' E 025°19'0 0.0
2019-May-10 11:58N 37°28' E 025°19'0 0.0
2019-May-10 11:28N 37°28' E 025°19'0 0.0
2019-May-10 10:58N 37°28' E 025°19'0 0.0
2019-May-10 10:28N 37°28' E 025°19'0 0.0
2019-May-10 09:58N 37°28' E 025°19'0 0.0
2019-May-10 09:28N 37°28' E 025°19'0 0.0
2019-May-10 08:58N 37°28' E 025°19'0 0.0
2019-May-10 08:28N 37°28' E 025°19'0 0.0
2019-May-10 07:55N 37°28' E 025°19'0 0.0
2019-May-10 07:30N 37°28' E 025°19'1 1.1
2019-May-10 07:00N 37°28' E 025°19'611.6
2019-May-10 06:30N 37°28' E 025°11'715.0
2019-May-10 06:01N 37°22' E 025°05'815.2
2019-May-10 05:31N 37°17' E 024°58'815.4
2019-May-10 05:01N 37°13' E 024°50'261505.4
2019-May-10 05:00N 37°12' E 024°18'2412.2 240 / 161010.010.8 17.017.015.0
2019-May-10 03:00N 36°48' E 024°12'1111.3 250 / 161010.010.8 17.017.015.0
2019-May-10 02:00N 36°42' E 024°00'   250 / 201010.0 17.017.019.0

Dump ship's entire track history